sensor_id;sensor_type;location;lat;lon;timestamp;temperature;humidity
23633;DHT22;11993;48.748;9.166;2022-11-25T00:00:49;5.00;82.50
23633;DHT22;11993;48.748;9.166;2022-11-25T00:03:15;5.00;82.00
23633;DHT22;11993;48.748;9.166;2022-11-25T00:05:41;5.10;81.90
23633;DHT22;11993;48.748;9.166;2022-11-25T00:08:06;5.10;81.80
23633;DHT22;11993;48.748;9.166;2022-11-25T00:10:32;5.00;82.00
23633;DHT22;11993;48.748;9.166;2022-11-25T00:12:57;5.00;82.40
23633;DHT22;11993;48.748;9.166;2022-11-25T00:15:23;5.00;82.30
23633;DHT22;11993;48.748;9.166;2022-11-25T00:17:48;5.20;81.70
23633;DHT22;11993;48.748;9.166;2022-11-25T00:20:14;5.00;82.10
23633;DHT22;11993;48.748;9.166;2022-11-25T00:22:39;5.00;82.00
23633;DHT22;11993;48.748;9.166;2022-11-25T00:25:05;5.10;82.00
23633;DHT22;11993;48.748;9.166;2022-11-25T00:27:31;5.20;81.70
23633;DHT22;11993;48.748;9.166;2022-11-25T00:29:56;5.10;81.70
23633;DHT22;11993;48.748;9.166;2022-11-25T00:32:22;5.00;82.00
23633;DHT22;11993;48.748;9.166;2022-11-25T00:34:47;5.00;82.00
23633;DHT22;11993;48.748;9.166;2022-11-25T00:37:13;4.90;82.20
23633;DHT22;11993;48.748;9.166;2022-11-25T00:39:39;4.80;82.20
23633;DHT22;11993;48.748;9.166;2022-11-25T00:42:04;4.80;82.50
23633;DHT22;11993;48.748;9.166;2022-11-25T00:44:48;4.70;82.50
23633;DHT22;11993;48.748;9.166;2022-11-25T00:47:16;4.60;83.10
23633;DHT22;11993;48.748;9.166;2022-11-25T00:49:46;4.70;83.20
23633;DHT22;11993;48.748;9.166;2022-11-25T00:52:14;4.60;83.50
23633;DHT22;11993;48.748;9.166;2022-11-25T00:54:40;4.60;83.60
23633;DHT22;11993;48.748;9.166;2022-11-25T00:57:06;4.60;83.70
23633;DHT22;11993;48.748;9.166;2022-11-25T00:59:31;4.60;83.80
23633;DHT22;11993;48.748;9.166;2022-11-25T01:01:57;4.70;83.70
23633;DHT22;11993;48.748;9.166;2022-11-25T01:04:22;4.70;83.70
23633;DHT22;11993;48.748;9.166;2022-11-25T01:06:48;4.80;83.40
23633;DHT22;11993;48.748;9.166;2022-11-25T01:09:14;4.80;83.50
23633;DHT22;11993;48.748;9.166;2022-11-25T01:11:40;4.80;83.30
23633;DHT22;11993;48.748;9.166;2022-11-25T01:14:06;4.70;83.60
23633;DHT22;11993;48.748;9.166;2022-11-25T01:16:33;4.70;83.50
23633;DHT22;11993;48.748;9.166;2022-11-25T01:18:59;4.70;83.60
23633;DHT22;11993;48.748;9.166;2022-11-25T01:21:27;4.80;83.50
23633;DHT22;11993;48.748;9.166;2022-11-25T01:23:53;4.60;83.50
23633;DHT22;11993;48.748;9.166;2022-11-25T01:26:21;4.70;83.80
23633;DHT22;11993;48.748;9.166;2022-11-25T01:28:48;4.70;83.90
23633;DHT22;11993;48.748;9.166;2022-11-25T01:31:19;4.70;83.60
23633;DHT22;11993;48.748;9.166;2022-11-25T01:33:46;4.70;83.80
23633;DHT22;11993;48.748;9.166;2022-11-25T01:36:17;4.80;83.60
23633;DHT22;11993;48.748;9.166;2022-11-25T01:38:43;4.90;83.30
23633;DHT22;11993;48.748;9.166;2022-11-25T01:41:12;4.90;83.40
23633;DHT22;11993;48.748;9.166;2022-11-25T01:43:38;4.70;83.90
23633;DHT22;11993;48.748;9.166;2022-11-25T01:46:26;4.70;84.00
23633;DHT22;11993;48.748;9.166;2022-11-25T01:49:02;4.90;83.80
23633;DHT22;11993;48.748;9.166;2022-11-25T01:51:39;4.70;84.10
23633;DHT22;11993;48.748;9.166;2022-11-25T01:54:09;4.70;84.30
23633;DHT22;11993;48.748;9.166;2022-11-25T01:56:41;4.70;84.50
23633;DHT22;11993;48.748;9.166;2022-11-25T01:59:09;4.70;84.50
23633;DHT22;11993;48.748;9.166;2022-11-25T02:01:35;4.80;84.20
23633;DHT22;11993;48.748;9.166;2022-11-25T02:04:01;4.80;84.20
23633;DHT22;11993;48.748;9.166;2022-11-25T02:06:33;4.90;84.10
23633;DHT22;11993;48.748;9.166;2022-11-25T02:09:03;4.80;84.20
23633;DHT22;11993;48.748;9.166;2022-11-25T02:11:30;4.80;84.20
23633;DHT22;11993;48.748;9.166;2022-11-25T02:13:57;5.00;84.10
23633;DHT22;11993;48.748;9.166;2022-11-25T02:16:24;5.00;84.00
23633;DHT22;11993;48.748;9.166;2022-11-25T02:18:49;4.90;83.80
23633;DHT22;11993;48.748;9.166;2022-11-25T02:21:40;4.90;83.60
23633;DHT22;11993;48.748;9.166;2022-11-25T02:24:14;4.70;84.30
23633;DHT22;11993;48.748;9.166;2022-11-25T02:26:41;4.60;84.60
23633;DHT22;11993;48.748;9.166;2022-11-25T02:29:07;4.80;84.20
23633;DHT22;11993;48.748;9.166;2022-11-25T02:31:32;4.90;84.10
23633;DHT22;11993;48.748;9.166;2022-11-25T02:33:58;4.70;84.20
23633;DHT22;11993;48.748;9.166;2022-11-25T02:36:24;4.70;84.40
23633;DHT22;11993;48.748;9.166;2022-11-25T02:38:57;4.70;84.60
23633;DHT22;11993;48.748;9.166;2022-11-25T02:41:26;4.60;84.60
23633;DHT22;11993;48.748;9.166;2022-11-25T02:43:53;4.70;84.20
23633;DHT22;11993;48.748;9.166;2022-11-25T02:46:21;4.60;84.90
23633;DHT22;11993;48.748;9.166;2022-11-25T02:48:49;4.70;84.60
23633;DHT22;11993;48.748;9.166;2022-11-25T02:51:17;4.70;84.30
23633;DHT22;11993;48.748;9.166;2022-11-25T02:53:43;4.70;84.40
23633;DHT22;11993;48.748;9.166;2022-11-25T02:56:11;4.70;84.30
23633;DHT22;11993;48.748;9.166;2022-11-25T02:58:37;4.80;84.40
23633;DHT22;11993;48.748;9.166;2022-11-25T03:01:03;4.80;84.10
23633;DHT22;11993;48.748;9.166;2022-11-25T03:03:28;4.90;84.00
23633;DHT22;11993;48.748;9.166;2022-11-25T03:05:54;5.00;83.60
23633;DHT22;11993;48.748;9.166;2022-11-25T03:08:20;5.00;83.40
23633;DHT22;11993;48.748;9.166;2022-11-25T03:10:45;5.10;83.40
23633;DHT22;11993;48.748;9.166;2022-11-25T03:13:11;5.10;83.40
23633;DHT22;11993;48.748;9.166;2022-11-25T03:15:37;5.10;83.40
23633;DHT22;11993;48.748;9.166;2022-11-25T03:18:04;5.10;83.40
23633;DHT22;11993;48.748;9.166;2022-11-25T03:20:29;5.10;83.10
23633;DHT22;11993;48.748;9.166;2022-11-25T03:22:55;5.20;82.90
23633;DHT22;11993;48.748;9.166;2022-11-25T03:25:21;5.20;82.90
23633;DHT22;11993;48.748;9.166;2022-11-25T03:27:46;5.20;83.00
23633;DHT22;11993;48.748;9.166;2022-11-25T03:30:18;5.30;82.60
23633;DHT22;11993;48.748;9.166;2022-11-25T03:32:44;5.10;82.80
23633;DHT22;11993;48.748;9.166;2022-11-25T03:35:10;5.10;82.80
23633;DHT22;11993;48.748;9.166;2022-11-25T03:37:36;5.00;83.20
23633;DHT22;11993;48.748;9.166;2022-11-25T03:40:02;4.90;83.30
23633;DHT22;11993;48.748;9.166;2022-11-25T03:42:28;5.00;83.30
23633;DHT22;11993;48.748;9.166;2022-11-25T03:44:53;4.90;83.40
23633;DHT22;11993;48.748;9.166;2022-11-25T03:47:19;4.90;83.40
23633;DHT22;11993;48.748;9.166;2022-11-25T03:49:45;4.90;83.50
23633;DHT22;11993;48.748;9.166;2022-11-25T03:52:10;4.80;83.70
23633;DHT22;11993;48.748;9.166;2022-11-25T03:54:36;4.80;83.90
23633;DHT22;11993;48.748;9.166;2022-11-25T03:57:01;4.70;83.90
23633;DHT22;11993;48.748;9.166;2022-11-25T03:59:27;4.70;84.00
23633;DHT22;11993;48.748;9.166;2022-11-25T04:01:52;4.70;84.00
23633;DHT22;11993;48.748;9.166;2022-11-25T04:04:18;4.60;84.40
23633;DHT22;11993;48.748;9.166;2022-11-25T04:06:43;4.60;84.50
23633;DHT22;11993;48.748;9.166;2022-11-25T04:09:09;4.50;84.50
23633;DHT22;11993;48.748;9.166;2022-11-25T04:11:36;4.50;84.50
23633;DHT22;11993;48.748;9.166;2022-11-25T04:14:20;4.60;84.40
23633;DHT22;11993;48.748;9.166;2022-11-25T04:16:46;4.40;84.70
23633;DHT22;11993;48.748;9.166;2022-11-25T04:19:11;4.40;84.50
23633;DHT22;11993;48.748;9.166;2022-11-25T04:21:37;4.20;85.00
23633;DHT22;11993;48.748;9.166;2022-11-25T04:24:02;4.30;84.90
23633;DHT22;11993;48.748;9.166;2022-11-25T04:26:28;4.40;84.70
23633;DHT22;11993;48.748;9.166;2022-11-25T04:28:54;4.50;84.60
23633;DHT22;11993;48.748;9.166;2022-11-25T04:31:19;4.50;84.40
23633;DHT22;11993;48.748;9.166;2022-11-25T04:33:45;4.30;84.50
23633;DHT22;11993;48.748;9.166;2022-11-25T04:36:11;4.20;84.70
23633;DHT22;11993;48.748;9.166;2022-11-25T04:38:36;4.20;84.60
23633;DHT22;11993;48.748;9.166;2022-11-25T04:41:02;4.00;85.10
23633;DHT22;11993;48.748;9.166;2022-11-25T04:43:28;4.10;85.20
23633;DHT22;11993;48.748;9.166;2022-11-25T04:45:53;4.00;85.20
23633;DHT22;11993;48.748;9.166;2022-11-25T04:48:19;3.80;85.70
23633;DHT22;11993;48.748;9.166;2022-11-25T04:50:45;3.70;85.70
23633;DHT22;11993;48.748;9.166;2022-11-25T04:53:11;3.70;85.70
23633;DHT22;11993;48.748;9.166;2022-11-25T04:55:36;3.60;85.60
23633;DHT22;11993;48.748;9.166;2022-11-25T04:58:02;3.40;86.20
23633;DHT22;11993;48.748;9.166;2022-11-25T05:00:28;3.30;86.20
23633;DHT22;11993;48.748;9.166;2022-11-25T05:02:53;3.20;86.50
23633;DHT22;11993;48.748;9.166;2022-11-25T05:05:19;3.10;86.80
23633;DHT22;11993;48.748;9.166;2022-11-25T05:07:45;3.10;86.70
23633;DHT22;11993;48.748;9.166;2022-11-25T05:10:10;3.00;87.10
23633;DHT22;11993;48.748;9.166;2022-11-25T05:12:36;3.00;87.20
23633;DHT22;11993;48.748;9.166;2022-11-25T05:15:02;2.90;87.30
23633;DHT22;11993;48.748;9.166;2022-11-25T05:17:30;2.70;87.30
23633;DHT22;11993;48.748;9.166;2022-11-25T05:19:56;2.90;87.50
23633;DHT22;11993;48.748;9.166;2022-11-25T05:22:25;3.00;87.60
23633;DHT22;11993;48.748;9.166;2022-11-25T05:24:51;3.10;88.00
23633;DHT22;11993;48.748;9.166;2022-11-25T05:27:18;3.20;88.10
23633;DHT22;11993;48.748;9.166;2022-11-25T05:29:44;3.20;88.00
23633;DHT22;11993;48.748;9.166;2022-11-25T05:32:10;3.30;88.10
23633;DHT22;11993;48.748;9.166;2022-11-25T05:34:36;3.50;87.80
23633;DHT22;11993;48.748;9.166;2022-11-25T05:37:02;3.50;87.60
23633;DHT22;11993;48.748;9.166;2022-11-25T05:39:28;3.60;87.50
23633;DHT22;11993;48.748;9.166;2022-11-25T05:41:54;3.50;87.50
23633;DHT22;11993;48.748;9.166;2022-11-25T05:44:20;3.50;87.50
23633;DHT22;11993;48.748;9.166;2022-11-25T05:46:46;3.50;87.30
23633;DHT22;11993;48.748;9.166;2022-11-25T05:49:13;3.50;87.20
23633;DHT22;11993;48.748;9.166;2022-11-25T05:51:39;3.50;87.00
23633;DHT22;11993;48.748;9.166;2022-11-25T05:54:05;3.50;86.90
23633;DHT22;11993;48.748;9.166;2022-11-25T05:56:30;3.40;87.20
23633;DHT22;11993;48.748;9.166;2022-11-25T05:58:58;3.40;87.10
23633;DHT22;11993;48.748;9.166;2022-11-25T06:01:23;3.50;87.00
23633;DHT22;11993;48.748;9.166;2022-11-25T06:03:49;3.60;86.90
23633;DHT22;11993;48.748;9.166;2022-11-25T06:06:14;3.60;86.60
23633;DHT22;11993;48.748;9.166;2022-11-25T06:08:40;3.60;86.60
23633;DHT22;11993;48.748;9.166;2022-11-25T06:11:11;3.60;86.60
23633;DHT22;11993;48.748;9.166;2022-11-25T06:13:38;3.30;86.90
23633;DHT22;11993;48.748;9.166;2022-11-25T06:16:16;3.40;87.00
23633;DHT22;11993;48.748;9.166;2022-11-25T06:18:42;3.60;86.60
23633;DHT22;11993;48.748;9.166;2022-11-25T06:21:08;3.60;86.30
23633;DHT22;11993;48.748;9.166;2022-11-25T06:23:35;3.40;86.50
23633;DHT22;11993;48.748;9.166;2022-11-25T06:26:12;3.40;86.60
23633;DHT22;11993;48.748;9.166;2022-11-25T06:28:38;3.50;86.70
23633;DHT22;11993;48.748;9.166;2022-11-25T06:31:11;3.40;86.80
23633;DHT22;11993;48.748;9.166;2022-11-25T06:33:38;3.40;87.00
23633;DHT22;11993;48.748;9.166;2022-11-25T06:36:06;3.40;87.10
23633;DHT22;11993;48.748;9.166;2022-11-25T06:38:32;3.40;86.80
23633;DHT22;11993;48.748;9.166;2022-11-25T06:40:59;3.60;86.70
23633;DHT22;11993;48.748;9.166;2022-11-25T06:43:25;3.70;86.40
23633;DHT22;11993;48.748;9.166;2022-11-25T06:45:50;3.70;86.20
23633;DHT22;11993;48.748;9.166;2022-11-25T06:48:16;3.70;86.00
23633;DHT22;11993;48.748;9.166;2022-11-25T06:50:41;3.90;85.80
23633;DHT22;11993;48.748;9.166;2022-11-25T06:53:07;4.10;85.40
23633;DHT22;11993;48.748;9.166;2022-11-25T06:55:32;4.10;85.20
23633;DHT22;11993;48.748;9.166;2022-11-25T06:57:58;4.20;84.90
23633;DHT22;11993;48.748;9.166;2022-11-25T07:00:24;4.20;84.70
23633;DHT22;11993;48.748;9.166;2022-11-25T07:02:49;4.30;84.40
23633;DHT22;11993;48.748;9.166;2022-11-25T07:05:15;4.30;84.30
23633;DHT22;11993;48.748;9.166;2022-11-25T07:07:40;4.50;84.00
23633;DHT22;11993;48.748;9.166;2022-11-25T07:10:06;4.50;83.90
23633;DHT22;11993;48.748;9.166;2022-11-25T07:12:32;4.60;83.90
23633;DHT22;11993;48.748;9.166;2022-11-25T07:14:57;4.60;83.60
23633;DHT22;11993;48.748;9.166;2022-11-25T07:17:23;4.70;83.60
23633;DHT22;11993;48.748;9.166;2022-11-25T07:19:48;4.60;83.40
23633;DHT22;11993;48.748;9.166;2022-11-25T07:22:14;4.60;83.40
23633;DHT22;11993;48.748;9.166;2022-11-25T07:24:39;4.70;83.40
23633;DHT22;11993;48.748;9.166;2022-11-25T07:27:05;4.70;83.40
23633;DHT22;11993;48.748;9.166;2022-11-25T07:29:31;4.70;83.20
23633;DHT22;11993;48.748;9.166;2022-11-25T07:31:57;4.70;83.20
23633;DHT22;11993;48.748;9.166;2022-11-25T07:34:22;4.60;83.10
23633;DHT22;11993;48.748;9.166;2022-11-25T07:36:49;4.70;83.10
23633;DHT22;11993;48.748;9.166;2022-11-25T07:39:17;4.70;83.10
23633;DHT22;11993;48.748;9.166;2022-11-25T07:41:44;4.70;83.20
23633;DHT22;11993;48.748;9.166;2022-11-25T07:44:12;4.70;83.20
23633;DHT22;11993;48.748;9.166;2022-11-25T07:46:43;4.80;83.00
23633;DHT22;11993;48.748;9.166;2022-11-25T07:49:15;4.70;83.20
23633;DHT22;11993;48.748;9.166;2022-11-25T07:51:46;4.70;83.20
23633;DHT22;11993;48.748;9.166;2022-11-25T07:54:12;4.80;83.10
23633;DHT22;11993;48.748;9.166;2022-11-25T07:56:40;4.80;83.30
23633;DHT22;11993;48.748;9.166;2022-11-25T07:59:10;4.80;83.10
23633;DHT22;11993;48.748;9.166;2022-11-25T08:01:36;4.90;83.00
23633;DHT22;11993;48.748;9.166;2022-11-25T08:04:02;4.90;82.80
23633;DHT22;11993;48.748;9.166;2022-11-25T08:06:28;5.00;82.50
23633;DHT22;11993;48.748;9.166;2022-11-25T08:08:55;5.10;82.40
23633;DHT22;11993;48.748;9.166;2022-11-25T08:11:26;5.10;82.40
23633;DHT22;11993;48.748;9.166;2022-11-25T08:13:53;5.20;82.20
23633;DHT22;11993;48.748;9.166;2022-11-25T08:16:20;5.10;82.20
23633;DHT22;11993;48.748;9.166;2022-11-25T08:18:46;5.20;82.00
23633;DHT22;11993;48.748;9.166;2022-11-25T08:21:13;5.20;82.20
23633;DHT22;11993;48.748;9.166;2022-11-25T08:23:40;5.40;82.10
23633;DHT22;11993;48.748;9.166;2022-11-25T08:26:12;5.50;81.90
23633;DHT22;11993;48.748;9.166;2022-11-25T08:28:40;5.60;81.50
23633;DHT22;11993;48.748;9.166;2022-11-25T08:31:12;5.60;81.50
23633;DHT22;11993;48.748;9.166;2022-11-25T08:33:38;5.70;81.40
23633;DHT22;11993;48.748;9.166;2022-11-25T08:36:05;5.60;81.30
23633;DHT22;11993;48.748;9.166;2022-11-25T08:38:31;5.70;81.40
23633;DHT22;11993;48.748;9.166;2022-11-25T08:40:57;5.90;81.10
23633;DHT22;11993;48.748;9.166;2022-11-25T08:43:23;6.10;80.60
23633;DHT22;11993;48.748;9.166;2022-11-25T08:45:49;6.10;80.20
23633;DHT22;11993;48.748;9.166;2022-11-25T08:48:17;6.10;80.30
23633;DHT22;11993;48.748;9.166;2022-11-25T08:50:53;6.10;80.40
23633;DHT22;11993;48.748;9.166;2022-11-25T08:53:20;6.20;80.30
23633;DHT22;11993;48.748;9.166;2022-11-25T08:55:46;6.40;79.60
23633;DHT22;11993;48.748;9.166;2022-11-25T08:58:12;6.40;79.10
23633;DHT22;11993;48.748;9.166;2022-11-25T09:00:43;6.40;79.30
23633;DHT22;11993;48.748;9.166;2022-11-25T09:03:09;6.30;80.00
23633;DHT22;11993;48.748;9.166;2022-11-25T09:05:39;6.50;79.60
23633;DHT22;11993;48.748;9.166;2022-11-25T09:08:07;6.90;79.10
23633;DHT22;11993;48.748;9.166;2022-11-25T09:10:33;7.10;77.70
23633;DHT22;11993;48.748;9.166;2022-11-25T09:12:59;7.40;77.10
23633;DHT22;11993;48.748;9.166;2022-11-25T09:15:25;7.60;75.60
23633;DHT22;11993;48.748;9.166;2022-11-25T09:20:23;8.00;74.20
23633;DHT22;11993;48.748;9.166;2022-11-25T09:22:49;8.20;73.50
23633;DHT22;11993;48.748;9.166;2022-11-25T09:25:14;8.10;73.50
23633;DHT22;11993;48.748;9.166;2022-11-25T09:27:40;8.10;74.20
23633;DHT22;11993;48.748;9.166;2022-11-25T09:30:06;8.00;74.00
23633;DHT22;11993;48.748;9.166;2022-11-25T09:32:32;7.90;74.80
23633;DHT22;11993;48.748;9.166;2022-11-25T09:34:57;7.90;74.70
23633;DHT22;11993;48.748;9.166;2022-11-25T09:37:23;8.10;74.40
23633;DHT22;11993;48.748;9.166;2022-11-25T09:39:51;8.00;74.30
23633;DHT22;11993;48.748;9.166;2022-11-25T09:45:34;8.10;74.40
23633;DHT22;11993;48.748;9.166;2022-11-25T09:51:50;8.10;74.60
23633;DHT22;11993;48.748;9.166;2022-11-25T09:54:20;8.10;74.80
23633;DHT22;11993;48.748;9.166;2022-11-25T09:56:53;8.20;74.90
23633;DHT22;11993;48.748;9.166;2022-11-25T09:59:27;8.10;75.10
23633;DHT22;11993;48.748;9.166;2022-11-25T10:02:11;8.20;75.30
23633;DHT22;11993;48.748;9.166;2022-11-25T10:04:53;8.20;75.10
23633;DHT22;11993;48.748;9.166;2022-11-25T10:07:33;8.20;75.70
23633;DHT22;11993;48.748;9.166;2022-11-25T10:10:00;8.30;75.90
23633;DHT22;11993;48.748;9.166;2022-11-25T10:12:31;8.30;75.90
23633;DHT22;11993;48.748;9.166;2022-11-25T10:15:07;8.20;76.00
23633;DHT22;11993;48.748;9.166;2022-11-25T10:17:47;8.20;75.60
23633;DHT22;11993;48.748;9.166;2022-11-25T10:23:15;8.20;75.70
23633;DHT22;11993;48.748;9.166;2022-11-25T10:25:47;8.50;75.00
23633;DHT22;11993;48.748;9.166;2022-11-25T10:28:23;8.90;74.50
23633;DHT22;11993;48.748;9.166;2022-11-25T10:31:18;8.90;73.50
23633;DHT22;11993;48.748;9.166;2022-11-25T10:33:55;9.10;73.10
23633;DHT22;11993;48.748;9.166;2022-11-25T10:36:30;9.40;72.30
23633;DHT22;11993;48.748;9.166;2022-11-25T10:39:03;9.60;72.30
23633;DHT22;11993;48.748;9.166;2022-11-25T10:41:37;10.20;70.80
23633;DHT22;11993;48.748;9.166;2022-11-25T10:44:27;10.90;69.50
23633;DHT22;11993;48.748;9.166;2022-11-25T10:49:35;11.10;66.50
23633;DHT22;11993;48.748;9.166;2022-11-25T10:52:09;10.80;67.30
23633;DHT22;11993;48.748;9.166;2022-11-25T10:54:36;10.60;68.00
23633;DHT22;11993;48.748;9.166;2022-11-25T10:57:03;10.40;68.60
23633;DHT22;11993;48.748;9.166;2022-11-25T10:59:41;10.10;69.60
23633;DHT22;11993;48.748;9.166;2022-11-25T11:02:14;10.10;70.10
23633;DHT22;11993;48.748;9.166;2022-11-25T11:04:53;10.00;70.40
23633;DHT22;11993;48.748;9.166;2022-11-25T11:07:19;10.00;70.70
23633;DHT22;11993;48.748;9.166;2022-11-25T11:09:45;9.90;71.00
23633;DHT22;11993;48.748;9.166;2022-11-25T11:14:44;9.80;71.90
23633;DHT22;11993;48.748;9.166;2022-11-25T11:17:29;9.80;72.10
23633;DHT22;11993;48.748;9.166;2022-11-25T11:22:34;9.40;73.30
23633;DHT22;11993;48.748;9.166;2022-11-25T11:25:20;9.40;73.80
23633;DHT22;11993;48.748;9.166;2022-11-25T11:27:48;9.40;73.90
23633;DHT22;11993;48.748;9.166;2022-11-25T11:30:16;9.40;74.00
23633;DHT22;11993;48.748;9.166;2022-11-25T11:33:03;9.40;74.20
23633;DHT22;11993;48.748;9.166;2022-11-25T11:35:51;9.20;74.50
23633;DHT22;11993;48.748;9.166;2022-11-25T11:40:54;9.10;75.30
23633;DHT22;11993;48.748;9.166;2022-11-25T11:43:42;9.10;75.40
23633;DHT22;11993;48.748;9.166;2022-11-25T11:49:13;9.10;75.60
23633;DHT22;11993;48.748;9.166;2022-11-25T11:51:54;9.20;75.80
23633;DHT22;11993;48.748;9.166;2022-11-25T11:54:56;9.20;75.70
23633;DHT22;11993;48.748;9.166;2022-11-25T11:57:33;9.20;76.10
23633;DHT22;11993;48.748;9.166;2022-11-25T12:00:08;9.20;76.50
23633;DHT22;11993;48.748;9.166;2022-11-25T12:03:03;9.10;77.10
23633;DHT22;11993;48.748;9.166;2022-11-25T12:05:35;9.10;77.60
23633;DHT22;11993;48.748;9.166;2022-11-25T12:10:40;9.20;78.60
23633;DHT22;11993;48.748;9.166;2022-11-25T12:13:32;9.10;78.90
23633;DHT22;11993;48.748;9.166;2022-11-25T12:16:03;9.00;79.90
23633;DHT22;11993;48.748;9.166;2022-11-25T12:21:03;9.00;79.90
23633;DHT22;11993;48.748;9.166;2022-11-25T12:26:23;8.80;79.90
23633;DHT22;11993;48.748;9.166;2022-11-25T12:28:54;8.80;80.00
23633;DHT22;11993;48.748;9.166;2022-11-25T12:31:26;8.80;80.00
23633;DHT22;11993;48.748;9.166;2022-11-25T12:34:16;8.90;79.90
23633;DHT22;11993;48.748;9.166;2022-11-25T12:36:45;9.00;79.80
23633;DHT22;11993;48.748;9.166;2022-11-25T12:39:38;9.00;80.10
23633;DHT22;11993;48.748;9.166;2022-11-25T12:42:14;9.00;80.20
23633;DHT22;11993;48.748;9.166;2022-11-25T12:45:02;9.10;80.20
23633;DHT22;11993;48.748;9.166;2022-11-25T12:47:28;9.10;80.10
23633;DHT22;11993;48.748;9.166;2022-11-25T12:49:55;9.20;79.90
23633;DHT22;11993;48.748;9.166;2022-11-25T12:55:24;9.10;80.00
23633;DHT22;11993;48.748;9.166;2022-11-25T13:00:39;9.10;80.10
23633;DHT22;11993;48.748;9.166;2022-11-25T13:06:39;8.90;80.70
23633;DHT22;11993;48.748;9.166;2022-11-25T13:17:18;8.90;81.20
23633;DHT22;11993;48.748;9.166;2022-11-25T13:19:44;8.80;81.40
23633;DHT22;11993;48.748;9.166;2022-11-25T13:24:56;8.70;81.80
23633;DHT22;11993;48.748;9.166;2022-11-25T13:28:22;8.60;82.00
23633;DHT22;11993;48.748;9.166;2022-11-25T13:30:43;8.60;82.30
23633;DHT22;11993;48.748;9.166;2022-11-25T13:35:51;8.60;82.10
23633;DHT22;11993;48.748;9.166;2022-11-25T13:41:03;8.60;82.30
23633;DHT22;11993;48.748;9.166;2022-11-25T13:46:50;8.70;82.20
23633;DHT22;11993;48.748;9.166;2022-11-25T13:52:28;8.90;82.10
23633;DHT22;11993;48.748;9.166;2022-11-25T13:54:49;9.30;81.80
23633;DHT22;11993;48.748;9.166;2022-11-25T13:57:21;9.40;80.60
23633;DHT22;11993;48.748;9.166;2022-11-25T14:02:30;9.50;79.80
23633;DHT22;11993;48.748;9.166;2022-11-25T14:07:37;9.40;79.70
23633;DHT22;11993;48.748;9.166;2022-11-25T14:15:26;9.40;79.20
23633;DHT22;11993;48.748;9.166;2022-11-25T14:20:34;10.60;75.80
23633;DHT22;11993;48.748;9.166;2022-11-25T14:23:08;10.60;72.90
23633;DHT22;11993;48.748;9.166;2022-11-25T14:25:48;10.60;72.60
23633;DHT22;11993;48.748;9.166;2022-11-25T14:30:47;9.90;74.50
23633;DHT22;11993;48.748;9.166;2022-11-25T14:33:16;9.60;75.30
23633;DHT22;11993;48.748;9.166;2022-11-25T14:35:45;9.60;75.40
23633;DHT22;11993;48.748;9.166;2022-11-25T14:38:13;9.50;75.30
23633;DHT22;11993;48.748;9.166;2022-11-25T14:40:42;9.50;74.90
23633;DHT22;11993;48.748;9.166;2022-11-25T14:43:13;9.40;74.50
23633;DHT22;11993;48.748;9.166;2022-11-25T14:45:39;9.30;74.70
23633;DHT22;11993;48.748;9.166;2022-11-25T14:48:38;9.20;75.10
23633;DHT22;11993;48.748;9.166;2022-11-25T14:50:57;9.10;75.90
23633;DHT22;11993;48.748;9.166;2022-11-25T14:53:24;9.10;75.80
23633;DHT22;11993;48.748;9.166;2022-11-25T14:55:50;9.10;75.70
23633;DHT22;11993;48.748;9.166;2022-11-25T14:58:16;9.10;76.00
23633;DHT22;11993;48.748;9.166;2022-11-25T15:00:49;9.00;76.30
23633;DHT22;11993;48.748;9.166;2022-11-25T15:03:16;9.00;76.10
23633;DHT22;11993;48.748;9.166;2022-11-25T15:05:42;9.00;75.90
23633;DHT22;11993;48.748;9.166;2022-11-25T15:08:09;8.90;75.90
23633;DHT22;11993;48.748;9.166;2022-11-25T15:10:38;8.90;74.50
23633;DHT22;11993;48.748;9.166;2022-11-25T15:13:12;8.80;74.20
23633;DHT22;11993;48.748;9.166;2022-11-25T15:15:38;8.80;73.60
23633;DHT22;11993;48.748;9.166;2022-11-25T15:18:04;8.80;73.40
23633;DHT22;11993;48.748;9.166;2022-11-25T15:20:30;8.70;74.00
23633;DHT22;11993;48.748;9.166;2022-11-25T15:22:59;8.60;73.60
23633;DHT22;11993;48.748;9.166;2022-11-25T15:25:24;8.60;73.70
23633;DHT22;11993;48.748;9.166;2022-11-25T15:27:50;8.60;73.70
23633;DHT22;11993;48.748;9.166;2022-11-25T15:30:23;8.60;73.70
23633;DHT22;11993;48.748;9.166;2022-11-25T15:32:48;8.70;73.80
23633;DHT22;11993;48.748;9.166;2022-11-25T15:35:16;8.60;74.00
23633;DHT22;11993;48.748;9.166;2022-11-25T15:37:42;8.60;73.80
23633;DHT22;11993;48.748;9.166;2022-11-25T15:40:28;8.60;73.30
23633;DHT22;11993;48.748;9.166;2022-11-25T15:42:54;8.60;73.30
23633;DHT22;11993;48.748;9.166;2022-11-25T15:45:20;8.60;73.40
23633;DHT22;11993;48.748;9.166;2022-11-25T15:47:46;8.60;73.70
23633;DHT22;11993;48.748;9.166;2022-11-25T15:52:43;8.50;74.10
23633;DHT22;11993;48.748;9.166;2022-11-25T15:55:30;8.50;74.10
23633;DHT22;11993;48.748;9.166;2022-11-25T15:57:54;8.50;74.00
23633;DHT22;11993;48.748;9.166;2022-11-25T16:00:22;8.40;74.10
23633;DHT22;11993;48.748;9.166;2022-11-25T16:02:49;8.50;74.30
23633;DHT22;11993;48.748;9.166;2022-11-25T16:05:16;8.40;74.20
23633;DHT22;11993;48.748;9.166;2022-11-25T16:10:17;8.30;74.40
23633;DHT22;11993;48.748;9.166;2022-11-25T16:12:43;8.40;74.10
23633;DHT22;11993;48.748;9.166;2022-11-25T16:15:15;8.40;74.40
23633;DHT22;11993;48.748;9.166;2022-11-25T16:17:40;8.30;74.60
23633;DHT22;11993;48.748;9.166;2022-11-25T16:20:15;8.20;74.90
23633;DHT22;11993;48.748;9.166;2022-11-25T16:22:41;8.20;74.90
23633;DHT22;11993;48.748;9.166;2022-11-25T16:25:08;8.20;75.00
23633;DHT22;11993;48.748;9.166;2022-11-25T16:27:35;8.20;75.00
23633;DHT22;11993;48.748;9.166;2022-11-25T16:32:30;8.20;75.50
23633;DHT22;11993;48.748;9.166;2022-11-25T16:34:56;8.20;75.60
23633;DHT22;11993;48.748;9.166;2022-11-25T16:37:24;8.20;75.80
23633;DHT22;11993;48.748;9.166;2022-11-25T16:39:50;8.20;75.60
23633;DHT22;11993;48.748;9.166;2022-11-25T16:42:16;8.20;75.70
23633;DHT22;11993;48.748;9.166;2022-11-25T16:44:45;8.20;75.70
23633;DHT22;11993;48.748;9.166;2022-11-25T16:47:12;8.20;75.70
23633;DHT22;11993;48.748;9.166;2022-11-25T16:49:37;8.10;76.10
23633;DHT22;11993;48.748;9.166;2022-11-25T16:52:03;8.10;76.40
23633;DHT22;11993;48.748;9.166;2022-11-25T16:54:28;8.10;76.40
23633;DHT22;11993;48.748;9.166;2022-11-25T16:56:55;8.10;76.50
23633;DHT22;11993;48.748;9.166;2022-11-25T16:59:25;8.00;76.70
23633;DHT22;11993;48.748;9.166;2022-11-25T17:01:52;8.00;76.60
23633;DHT22;11993;48.748;9.166;2022-11-25T17:04:17;8.10;76.40
23633;DHT22;11993;48.748;9.166;2022-11-25T17:06:43;8.10;76.50
23633;DHT22;11993;48.748;9.166;2022-11-25T17:09:09;8.10;76.60
23633;DHT22;11993;48.748;9.166;2022-11-25T17:11:42;8.10;76.80
23633;DHT22;11993;48.748;9.166;2022-11-25T17:14:19;8.10;76.50
23633;DHT22;11993;48.748;9.166;2022-11-25T17:16:46;8.10;76.60
23633;DHT22;11993;48.748;9.166;2022-11-25T17:19:13;8.10;76.40
23633;DHT22;11993;48.748;9.166;2022-11-25T17:21:39;8.10;76.50
23633;DHT22;11993;48.748;9.166;2022-11-25T17:24:07;8.10;76.60